sensor_id;sensor_type;location;lat;lon;timestamp;P1;durP1;ratioP1;P2;durP2;ratioP2
66856;SDS011;53766;50.280;19.160;2023-05-07T00:00:22;5.03;;;3.40;;
66856;SDS011;53766;50.280;19.160;2023-05-07T00:03:11;5.20;;;3.63;;
66856;SDS011;53766;50.280;19.160;2023-05-07T00:05:40;4.70;;;3.55;;
66856;SDS011;53766;50.280;19.160;2023-05-07T00:08:08;5.07;;;3.72;;
66856;SDS011;53766;50.280;19.160;2023-05-07T00:10:35;5.35;;;3.60;;
66856;SDS011;53766;50.280;19.160;2023-05-07T00:13:03;5.18;;;3.58;;
66856;SDS011;53766;50.280;19.160;2023-05-07T00:15:31;4.50;;;3.60;;
66856;SDS011;53766;50.280;19.160;2023-05-07T00:17:58;5.25;;;3.70;;
66856;SDS011;53766;50.280;19.160;2023-05-07T00:20:26;5.18;;;3.58;;
66856;SDS011;53766;50.280;19.160;2023-05-07T00:22:54;5.25;;;3.65;;
66856;SDS011;53766;50.280;19.160;2023-05-07T00:25:21;5.45;;;3.40;;
66856;SDS011;53766;50.280;19.160;2023-05-07T00:27:49;4.88;;;3.42;;
66856;SDS011;53766;50.280;19.160;2023-05-07T00:30:16;5.88;;;3.65;;
66856;SDS011;53766;50.280;19.160;2023-05-07T00:32:45;6.63;;;3.40;;
66856;SDS011;53766;50.280;19.160;2023-05-07T00:35:12;4.95;;;3.35;;
66856;SDS011;53766;50.280;19.160;2023-05-07T00:37:40;5.03;;;3.60;;
66856;SDS011;53766;50.280;19.160;2023-05-07T00:40:07;5.53;;;3.63;;
66856;SDS011;53766;50.280;19.160;2023-05-07T00:42:36;4.97;;;3.38;;
66856;SDS011;53766;50.280;19.160;2023-05-07T00:45:04;4.40;;;3.40;;
66856;SDS011;53766;50.280;19.160;2023-05-07T00:47:32;4.32;;;3.08;;
66856;SDS011;53766;50.280;19.160;2023-05-07T00:49:59;5.10;;;3.63;;
66856;SDS011;53766;50.280;19.160;2023-05-07T00:52:27;5.75;;;3.90;;
66856;SDS011;53766;50.280;19.160;2023-05-07T00:54:55;5.97;;;3.55;;
66856;SDS011;53766;50.280;19.160;2023-05-07T00:57:24;4.88;;;3.55;;
66856;SDS011;53766;50.280;19.160;2023-05-07T00:59:52;5.53;;;4.00;;
66856;SDS011;53766;50.280;19.160;2023-05-07T01:02:20;5.38;;;3.63;;
66856;SDS011;53766;50.280;19.160;2023-05-07T01:04:47;5.22;;;3.65;;
66856;SDS011;53766;50.280;19.160;2023-05-07T01:07:15;5.47;;;3.60;;
66856;SDS011;53766;50.280;19.160;2023-05-07T01:09:43;5.50;;;3.58;;
66856;SDS011;53766;50.280;19.160;2023-05-07T01:12:11;6.38;;;3.80;;
66856;SDS011;53766;50.280;19.160;2023-05-07T01:14:40;6.55;;;3.67;;
66856;SDS011;53766;50.280;19.160;2023-05-07T01:17:07;5.72;;;3.88;;
66856;SDS011;53766;50.280;19.160;2023-05-07T01:19:35;5.53;;;3.67;;
66856;SDS011;53766;50.280;19.160;2023-05-07T01:22:09;4.75;;;3.45;;
66856;SDS011;53766;50.280;19.160;2023-05-07T01:24:38;5.63;;;3.97;;
66856;SDS011;53766;50.280;19.160;2023-05-07T01:27:05;4.22;;;3.10;;
66856;SDS011;53766;50.280;19.160;2023-05-07T01:29:33;7.05;;;3.40;;
66856;SDS011;53766;50.280;19.160;2023-05-07T01:32:00;4.90;;;3.38;;
66856;SDS011;53766;50.280;19.160;2023-05-07T01:34:30;4.25;;;3.33;;
66856;SDS011;53766;50.280;19.160;2023-05-07T01:36:59;5.47;;;3.70;;
66856;SDS011;53766;50.280;19.160;2023-05-07T01:39:28;4.40;;;3.40;;
66856;SDS011;53766;50.280;19.160;2023-05-07T01:41:57;4.10;;;3.08;;
66856;SDS011;53766;50.280;19.160;2023-05-07T01:44:26;4.93;;;3.30;;
66856;SDS011;53766;50.280;19.160;2023-05-07T01:46:55;4.90;;;3.53;;
66856;SDS011;53766;50.280;19.160;2023-05-07T01:49:24;4.07;;;3.03;;
66856;SDS011;53766;50.280;19.160;2023-05-07T01:51:52;4.97;;;3.75;;
66856;SDS011;53766;50.280;19.160;2023-05-07T01:54:19;5.18;;;3.78;;
66856;SDS011;53766;50.280;19.160;2023-05-07T01:56:52;4.22;;;3.05;;
66856;SDS011;53766;50.280;19.160;2023-05-07T01:59:20;4.80;;;3.22;;
66856;SDS011;53766;50.280;19.160;2023-05-07T02:01:48;4.05;;;2.83;;
66856;SDS011;53766;50.280;19.160;2023-05-07T02:04:15;6.85;;;3.50;;
66856;SDS011;53766;50.280;19.160;2023-05-07T02:06:43;4.25;;;3.08;;
66856;SDS011;53766;50.280;19.160;2023-05-07T02:09:10;4.78;;;3.60;;
66856;SDS011;53766;50.280;19.160;2023-05-07T02:11:38;5.28;;;3.42;;
66856;SDS011;53766;50.280;19.160;2023-05-07T02:14:05;6.28;;;3.50;;
66856;SDS011;53766;50.280;19.160;2023-05-07T02:16:33;5.03;;;3.33;;
66856;SDS011;53766;50.280;19.160;2023-05-07T02:19:01;5.07;;;3.50;;
66856;SDS011;53766;50.280;19.160;2023-05-07T02:21:28;4.53;;;3.33;;
66856;SDS011;53766;50.280;19.160;2023-05-07T02:23:57;3.53;;;2.80;;
66856;SDS011;53766;50.280;19.160;2023-05-07T02:26:24;5.32;;;3.97;;
66856;SDS011;53766;50.280;19.160;2023-05-07T02:28:52;3.78;;;2.92;;
66856;SDS011;53766;50.280;19.160;2023-05-07T02:31:20;5.18;;;3.67;;
66856;SDS011;53766;50.280;19.160;2023-05-07T02:33:48;4.47;;;3.55;;
66856;SDS011;53766;50.280;19.160;2023-05-07T02:36:16;5.13;;;3.30;;
66856;SDS011;53766;50.280;19.160;2023-05-07T02:38:43;4.78;;;3.25;;
66856;SDS011;53766;50.280;19.160;2023-05-07T02:41:11;4.18;;;3.00;;
66856;SDS011;53766;50.280;19.160;2023-05-07T02:43:38;4.80;;;3.03;;
66856;SDS011;53766;50.280;19.160;2023-05-07T02:46:06;4.22;;;3.00;;
66856;SDS011;53766;50.280;19.160;2023-05-07T02:48:35;4.10;;;3.10;;
66856;SDS011;53766;50.280;19.160;2023-05-07T02:51:03;4.95;;;3.28;;
66856;SDS011;53766;50.280;19.160;2023-05-07T02:53:32;3.97;;;2.95;;
66856;SDS011;53766;50.280;19.160;2023-05-07T02:56:00;5.53;;;3.20;;
66856;SDS011;53766;50.280;19.160;2023-05-07T02:58:28;4.95;;;3.17;;
66856;SDS011;53766;50.280;19.160;2023-05-07T03:00:56;4.53;;;3.30;;
66856;SDS011;53766;50.280;19.160;2023-05-07T03:03:23;3.58;;;2.72;;
66856;SDS011;53766;50.280;19.160;2023-05-07T03:05:51;4.25;;;2.97;;
66856;SDS011;53766;50.280;19.160;2023-05-07T03:08:18;4.35;;;2.97;;
66856;SDS011;53766;50.280;19.160;2023-05-07T03:10:46;4.40;;;3.28;;
66856;SDS011;53766;50.280;19.160;2023-05-07T03:13:14;4.18;;;3.00;;
66856;SDS011;53766;50.280;19.160;2023-05-07T03:15:42;4.30;;;3.08;;
66856;SDS011;53766;50.280;19.160;2023-05-07T03:18:09;4.70;;;3.33;;
66856;SDS011;53766;50.280;19.160;2023-05-07T03:20:37;4.18;;;2.88;;
66856;SDS011;53766;50.280;19.160;2023-05-07T03:23:05;4.22;;;3.05;;
66856;SDS011;53766;50.280;19.160;2023-05-07T03:25:32;4.35;;;3.13;;
66856;SDS011;53766;50.280;19.160;2023-05-07T03:28:00;4.00;;;2.72;;
66856;SDS011;53766;50.280;19.160;2023-05-07T03:30:28;5.00;;;3.03;;
66856;SDS011;53766;50.280;19.160;2023-05-07T03:32:55;3.67;;;2.78;;
66856;SDS011;53766;50.280;19.160;2023-05-07T03:35:23;4.25;;;2.70;;
66856;SDS011;53766;50.280;19.160;2023-05-07T03:37:51;4.45;;;2.97;;
66856;SDS011;53766;50.280;19.160;2023-05-07T03:40:18;3.80;;;2.70;;
66856;SDS011;53766;50.280;19.160;2023-05-07T03:42:46;3.65;;;2.75;;
66856;SDS011;53766;50.280;19.160;2023-05-07T03:45:13;3.00;;;2.50;;
66856;SDS011;53766;50.280;19.160;2023-05-07T03:47:40;3.72;;;2.75;;
66856;SDS011;53766;50.280;19.160;2023-05-07T03:50:08;3.53;;;2.45;;
66856;SDS011;53766;50.280;19.160;2023-05-07T03:52:37;3.28;;;2.58;;
66856;SDS011;53766;50.280;19.160;2023-05-07T03:55:05;3.92;;;2.92;;
66856;SDS011;53766;50.280;19.160;2023-05-07T03:57:33;4.10;;;2.95;;
66856;SDS011;53766;50.280;19.160;2023-05-07T04:00:00;3.30;;;2.60;;
66856;SDS011;53766;50.280;19.160;2023-05-07T04:02:28;3.40;;;2.80;;
66856;SDS011;53766;50.280;19.160;2023-05-07T04:04:56;4.35;;;2.63;;
66856;SDS011;53766;50.280;19.160;2023-05-07T04:07:23;3.28;;;2.72;;
66856;SDS011;53766;50.280;19.160;2023-05-07T04:09:51;3.85;;;2.85;;
66856;SDS011;53766;50.280;19.160;2023-05-07T04:12:18;4.32;;;2.55;;
66856;SDS011;53766;50.280;19.160;2023-05-07T04:14:46;3.83;;;2.88;;
66856;SDS011;53766;50.280;19.160;2023-05-07T04:17:13;3.60;;;2.60;;
66856;SDS011;53766;50.280;19.160;2023-05-07T04:19:41;4.07;;;2.97;;
66856;SDS011;53766;50.280;19.160;2023-05-07T04:22:12;3.67;;;2.63;;
66856;SDS011;53766;50.280;19.160;2023-05-07T04:24:39;4.25;;;2.92;;
66856;SDS011;53766;50.280;19.160;2023-05-07T04:27:07;3.72;;;2.45;;
66856;SDS011;53766;50.280;19.160;2023-05-07T04:29:35;3.67;;;2.58;;
66856;SDS011;53766;50.280;19.160;2023-05-07T04:32:02;3.53;;;2.50;;
66856;SDS011;53766;50.280;19.160;2023-05-07T04:34:30;3.40;;;2.42;;
66856;SDS011;53766;50.280;19.160;2023-05-07T04:36:58;3.75;;;2.50;;
66856;SDS011;53766;50.280;19.160;2023-05-07T04:39:26;4.22;;;2.80;;
66856;SDS011;53766;50.280;19.160;2023-05-07T04:41:53;3.28;;;2.30;;
66856;SDS011;53766;50.280;19.160;2023-05-07T04:44:21;3.33;;;2.30;;
66856;SDS011;53766;50.280;19.160;2023-05-07T04:46:49;3.70;;;2.63;;
66856;SDS011;53766;50.280;19.160;2023-05-07T04:49:16;3.72;;;2.60;;
66856;SDS011;53766;50.280;19.160;2023-05-07T04:51:44;5.55;;;2.20;;
66856;SDS011;53766;50.280;19.160;2023-05-07T04:54:12;3.45;;;2.50;;
66856;SDS011;53766;50.280;19.160;2023-05-07T04:56:39;3.60;;;2.53;;
66856;SDS011;53766;50.280;19.160;2023-05-07T04:59:07;4.82;;;2.53;;
66856;SDS011;53766;50.280;19.160;2023-05-07T05:01:34;5.53;;;2.55;;
66856;SDS011;53766;50.280;19.160;2023-05-07T05:04:02;3.17;;;2.30;;
66856;SDS011;53766;50.280;19.160;2023-05-07T05:06:30;3.35;;;2.40;;
66856;SDS011;53766;50.280;19.160;2023-05-07T05:08:57;3.58;;;2.47;;
66856;SDS011;53766;50.280;19.160;2023-05-07T05:11:25;2.85;;;2.08;;
66856;SDS011;53766;50.280;19.160;2023-05-07T05:13:53;3.85;;;2.20;;
66856;SDS011;53766;50.280;19.160;2023-05-07T05:16:20;7.07;;;2.35;;
66856;SDS011;53766;50.280;19.160;2023-05-07T05:18:48;2.65;;;2.10;;
66856;SDS011;53766;50.280;19.160;2023-05-07T05:21:15;5.07;;;2.47;;
66856;SDS011;53766;50.280;19.160;2023-05-07T05:23:43;3.13;;;2.25;;
66856;SDS011;53766;50.280;19.160;2023-05-07T05:26:10;3.92;;;2.05;;
66856;SDS011;53766;50.280;19.160;2023-05-07T05:28:38;3.28;;;2.30;;
66856;SDS011;53766;50.280;19.160;2023-05-07T05:31:06;2.92;;;2.22;;
66856;SDS011;53766;50.280;19.160;2023-05-07T05:33:33;3.00;;;2.10;;
66856;SDS011;53766;50.280;19.160;2023-05-07T05:36:01;3.33;;;2.25;;
66856;SDS011;53766;50.280;19.160;2023-05-07T05:38:28;4.97;;;2.17;;
66856;SDS011;53766;50.280;19.160;2023-05-07T05:40:56;5.07;;;2.33;;
66856;SDS011;53766;50.280;19.160;2023-05-07T05:43:23;8.07;;;2.70;;
66856;SDS011;53766;50.280;19.160;2023-05-07T05:45:51;6.18;;;2.28;;
66856;SDS011;53766;50.280;19.160;2023-05-07T05:48:18;6.38;;;2.58;;
66856;SDS011;53766;50.280;19.160;2023-05-07T05:50:46;5.00;;;2.20;;
66856;SDS011;53766;50.280;19.160;2023-05-07T05:53:14;4.13;;;2.50;;
66856;SDS011;53766;50.280;19.160;2023-05-07T05:55:42;4.57;;;2.35;;
66856;SDS011;53766;50.280;19.160;2023-05-07T05:58:10;4.70;;;2.40;;
66856;SDS011;53766;50.280;19.160;2023-05-07T06:00:38;6.55;;;2.25;;
66856;SDS011;53766;50.280;19.160;2023-05-07T06:03:06;6.05;;;2.65;;
66856;SDS011;53766;50.280;19.160;2023-05-07T06:05:33;6.18;;;2.50;;
66856;SDS011;53766;50.280;19.160;2023-05-07T06:08:02;6.65;;;2.78;;
66856;SDS011;53766;50.280;19.160;2023-05-07T06:10:29;4.85;;;2.22;;
66856;SDS011;53766;50.280;19.160;2023-05-07T06:12:57;4.93;;;2.40;;
66856;SDS011;53766;50.280;19.160;2023-05-07T06:15:25;9.52;;;2.55;;
66856;SDS011;53766;50.280;19.160;2023-05-07T06:17:52;4.72;;;2.15;;
66856;SDS011;53766;50.280;19.160;2023-05-07T06:20:20;3.92;;;2.35;;
66856;SDS011;53766;50.280;19.160;2023-05-07T06:22:47;4.78;;;2.45;;
66856;SDS011;53766;50.280;19.160;2023-05-07T06:25:15;10.80;;;3.05;;
66856;SDS011;53766;50.280;19.160;2023-05-07T06:27:43;4.60;;;2.28;;
66856;SDS011;53766;50.280;19.160;2023-05-07T06:30:10;4.47;;;2.80;;
66856;SDS011;53766;50.280;19.160;2023-05-07T06:32:40;4.78;;;2.65;;
66856;SDS011;53766;50.280;19.160;2023-05-07T06:35:08;4.60;;;2.58;;
66856;SDS011;53766;50.280;19.160;2023-05-07T06:37:36;5.00;;;2.08;;
66856;SDS011;53766;50.280;19.160;2023-05-07T06:40:05;5.40;;;2.50;;
66856;SDS011;53766;50.280;19.160;2023-05-07T06:42:35;4.10;;;2.22;;
66856;SDS011;53766;50.280;19.160;2023-05-07T06:45:04;4.18;;;2.13;;
66856;SDS011;53766;50.280;19.160;2023-05-07T06:47:32;4.38;;;2.13;;
66856;SDS011;53766;50.280;19.160;2023-05-07T06:49:59;3.65;;;2.13;;
66856;SDS011;53766;50.280;19.160;2023-05-07T06:52:27;3.85;;;2.20;;
66856;SDS011;53766;50.280;19.160;2023-05-07T06:54:54;4.75;;;2.17;;
66856;SDS011;53766;50.280;19.160;2023-05-07T06:57:22;3.58;;;2.10;;
66856;SDS011;53766;50.280;19.160;2023-05-07T06:59:49;3.90;;;2.00;;
66856;SDS011;53766;50.280;19.160;2023-05-07T07:02:17;4.43;;;2.22;;
66856;SDS011;53766;50.280;19.160;2023-05-07T07:04:44;4.00;;;2.22;;
66856;SDS011;53766;50.280;19.160;2023-05-07T07:07:12;5.13;;;2.40;;
66856;SDS011;53766;50.280;19.160;2023-05-07T07:09:40;3.35;;;2.10;;
66856;SDS011;53766;50.280;19.160;2023-05-07T07:12:07;4.40;;;2.25;;
66856;SDS011;53766;50.280;19.160;2023-05-07T07:14:35;4.40;;;2.30;;
66856;SDS011;53766;50.280;19.160;2023-05-07T07:17:02;3.75;;;2.03;;
66856;SDS011;53766;50.280;19.160;2023-05-07T07:19:31;2.90;;;1.83;;
66856;SDS011;53766;50.280;19.160;2023-05-07T07:21:59;4.45;;;2.25;;
66856;SDS011;53766;50.280;19.160;2023-05-07T07:24:26;3.03;;;2.22;;
66856;SDS011;53766;50.280;19.160;2023-05-07T07:26:54;3.67;;;2.05;;
66856;SDS011;53766;50.280;19.160;2023-05-07T07:29:22;4.13;;;2.20;;
66856;SDS011;53766;50.280;19.160;2023-05-07T07:31:50;5.45;;;2.00;;
66856;SDS011;53766;50.280;19.160;2023-05-07T07:34:17;3.70;;;1.80;;
66856;SDS011;53766;50.280;19.160;2023-05-07T07:36:45;4.28;;;1.70;;
66856;SDS011;53766;50.280;19.160;2023-05-07T07:39:13;4.35;;;2.20;;
66856;SDS011;53766;50.280;19.160;2023-05-07T07:41:40;3.58;;;1.90;;
66856;SDS011;53766;50.280;19.160;2023-05-07T07:44:08;6.90;;;2.35;;
66856;SDS011;53766;50.280;19.160;2023-05-07T07:46:42;4.97;;;1.88;;
66856;SDS011;53766;50.280;19.160;2023-05-07T07:49:09;3.58;;;2.13;;
66856;SDS011;53766;50.280;19.160;2023-05-07T07:51:37;4.72;;;2.20;;
66856;SDS011;53766;50.280;19.160;2023-05-07T07:54:05;2.97;;;1.80;;
66856;SDS011;53766;50.280;19.160;2023-05-07T07:56:33;4.15;;;1.90;;
66856;SDS011;53766;50.280;19.160;2023-05-07T07:59:01;3.50;;;1.83;;
66856;SDS011;53766;50.280;19.160;2023-05-07T08:01:29;4.60;;;2.10;;
66856;SDS011;53766;50.280;19.160;2023-05-07T08:03:57;2.80;;;2.00;;
66856;SDS011;53766;50.280;19.160;2023-05-07T08:06:26;3.30;;;2.03;;
66856;SDS011;53766;50.280;19.160;2023-05-07T08:08:53;4.13;;;1.90;;
66856;SDS011;53766;50.280;19.160;2023-05-07T08:11:22;6.43;;;2.20;;
66856;SDS011;53766;50.280;19.160;2023-05-07T08:13:49;4.30;;;2.10;;
66856;SDS011;53766;50.280;19.160;2023-05-07T08:16:18;2.72;;;1.83;;
66856;SDS011;53766;50.280;19.160;2023-05-07T08:18:47;4.07;;;2.03;;
66856;SDS011;53766;50.280;19.160;2023-05-07T08:21:15;3.67;;;1.85;;
66856;SDS011;53766;50.280;19.160;2023-05-07T08:23:42;4.22;;;2.10;;
66856;SDS011;53766;50.280;19.160;2023-05-07T08:26:10;4.63;;;2.42;;
66856;SDS011;53766;50.280;19.160;2023-05-07T08:28:38;18.02;;;2.10;;
66856;SDS011;53766;50.280;19.160;2023-05-07T08:31:06;3.50;;;2.05;;
66856;SDS011;53766;50.280;19.160;2023-05-07T08:33:33;3.75;;;2.00;;
66856;SDS011;53766;50.280;19.160;2023-05-07T08:36:01;7.22;;;2.17;;
66856;SDS011;53766;50.280;19.160;2023-05-07T08:38:28;4.20;;;1.98;;
66856;SDS011;53766;50.280;19.160;2023-05-07T08:40:56;3.35;;;2.00;;
66856;SDS011;53766;50.280;19.160;2023-05-07T08:43:26;6.72;;;2.17;;
66856;SDS011;53766;50.280;19.160;2023-05-07T08:45:55;3.97;;;2.10;;
66856;SDS011;53766;50.280;19.160;2023-05-07T08:48:25;3.60;;;2.13;;
66856;SDS011;53766;50.280;19.160;2023-05-07T08:50:54;4.82;;;2.10;;
66856;SDS011;53766;50.280;19.160;2023-05-07T08:53:22;3.35;;;1.90;;
66856;SDS011;53766;50.280;19.160;2023-05-07T08:55:49;4.88;;;2.03;;
66856;SDS011;53766;50.280;19.160;2023-05-07T08:58:17;4.78;;;1.83;;
66856;SDS011;53766;50.280;19.160;2023-05-07T09:00:45;3.05;;;1.80;;
66856;SDS011;53766;50.280;19.160;2023-05-07T09:03:14;4.03;;;1.73;;
66856;SDS011;53766;50.280;19.160;2023-05-07T09:05:42;4.55;;;2.17;;
66856;SDS011;53766;50.280;19.160;2023-05-07T09:08:14;3.67;;;1.85;;
66856;SDS011;53766;50.280;19.160;2023-05-07T09:10:42;12.90;;;1.90;;
66856;SDS011;53766;50.280;19.160;2023-05-07T09:13:09;3.70;;;1.67;;
66856;SDS011;53766;50.280;19.160;2023-05-07T09:15:40;4.75;;;2.17;;
66856;SDS011;53766;50.280;19.160;2023-05-07T09:18:07;3.25;;;1.70;;
66856;SDS011;53766;50.280;19.160;2023-05-07T09:20:38;3.13;;;1.88;;
66856;SDS011;53766;50.280;19.160;2023-05-07T09:23:07;2.72;;;1.70;;
66856;SDS011;53766;50.280;19.160;2023-05-07T09:25:35;3.45;;;1.80;;
66856;SDS011;53766;50.280;19.160;2023-05-07T09:28:03;3.42;;;2.00;;
66856;SDS011;53766;50.280;19.160;2023-05-07T09:30:34;3.97;;;1.80;;
66856;SDS011;53766;50.280;19.160;2023-05-07T09:33:02;3.22;;;1.77;;
66856;SDS011;53766;50.280;19.160;2023-05-07T09:35:31;2.78;;;1.73;;
66856;SDS011;53766;50.280;19.160;2023-05-07T09:37:59;3.42;;;1.63;;
66856;SDS011;53766;50.280;19.160;2023-05-07T09:40:30;3.80;;;1.42;;
66856;SDS011;53766;50.280;19.160;2023-05-07T09:43:08;4.80;;;1.50;;
66856;SDS011;53766;50.280;19.160;2023-05-07T09:45:37;7.22;;;1.90;;
66856;SDS011;53766;50.280;19.160;2023-05-07T09:48:05;2.70;;;1.92;;
66856;SDS011;53766;50.280;19.160;2023-05-07T09:50:40;2.55;;;1.70;;
66856;SDS011;53766;50.280;19.160;2023-05-07T09:53:15;7.32;;;1.70;;
66856;SDS011;53766;50.280;19.160;2023-05-07T09:55:44;3.60;;;1.60;;
66856;SDS011;53766;50.280;19.160;2023-05-07T09:58:12;2.22;;;1.60;;
66856;SDS011;53766;50.280;19.160;2023-05-07T10:00:43;3.47;;;1.80;;
66856;SDS011;53766;50.280;19.160;2023-05-07T10:03:12;2.88;;;1.60;;
66856;SDS011;53766;50.280;19.160;2023-05-07T10:05:41;2.85;;;1.60;;
66856;SDS011;53766;50.280;19.160;2023-05-07T10:08:11;2.35;;;1.50;;
66856;SDS011;53766;50.280;19.160;2023-05-07T10:10:39;2.60;;;1.65;;
66856;SDS011;53766;50.280;19.160;2023-05-07T10:13:07;4.47;;;2.10;;
66856;SDS011;53766;50.280;19.160;2023-05-07T10:15:38;3.25;;;1.63;;
66856;SDS011;53766;50.280;19.160;2023-05-07T10:18:06;3.63;;;1.73;;
66856;SDS011;53766;50.280;19.160;2023-05-07T10:20:34;4.22;;;1.63;;
66856;SDS011;53766;50.280;19.160;2023-05-07T10:23:04;2.72;;;1.70;;
66856;SDS011;53766;50.280;19.160;2023-05-07T10:25:32;3.10;;;1.63;;
66856;SDS011;53766;50.280;19.160;2023-05-07T10:28:04;3.15;;;1.58;;
66856;SDS011;53766;50.280;19.160;2023-05-07T10:33:29;2.75;;;1.80;;
66856;SDS011;53766;50.280;19.160;2023-05-07T10:36:00;3.45;;;1.60;;
66856;SDS011;53766;50.280;19.160;2023-05-07T10:38:31;4.70;;;1.63;;
66856;SDS011;53766;50.280;19.160;2023-05-07T10:40:58;6.53;;;2.00;;
66856;SDS011;53766;50.280;19.160;2023-05-07T10:43:26;7.45;;;2.33;;
66856;SDS011;53766;50.280;19.160;2023-05-07T10:46:19;8.05;;;2.08;;
66856;SDS011;53766;50.280;19.160;2023-05-07T10:49:09;8.93;;;1.95;;
66856;SDS011;53766;50.280;19.160;2023-05-07T10:51:35;7.00;;;1.83;;
66856;SDS011;53766;50.280;19.160;2023-05-07T10:56:36;11.50;;;2.28;;
66856;SDS011;53766;50.280;19.160;2023-05-07T11:02:01;7.22;;;1.92;;
66856;SDS011;53766;50.280;19.160;2023-05-07T11:04:31;5.38;;;1.95;;
66856;SDS011;53766;50.280;19.160;2023-05-07T11:12:46;5.20;;;1.75;;
66856;SDS011;53766;50.280;19.160;2023-05-07T11:15:08;2.72;;;1.60;;
66856;SDS011;53766;50.280;19.160;2023-05-07T11:17:53;6.18;;;2.20;;
66856;SDS011;53766;50.280;19.160;2023-05-07T11:20:21;3.22;;;1.85;;
66856;SDS011;53766;50.280;19.160;2023-05-07T11:26:03;4.45;;;2.00;;
66856;SDS011;53766;50.280;19.160;2023-05-07T11:28:36;5.68;;;1.90;;
66856;SDS011;53766;50.280;19.160;2023-05-07T11:31:05;5.00;;;2.05;;
66856;SDS011;53766;50.280;19.160;2023-05-07T11:33:33;4.25;;;1.90;;
66856;SDS011;53766;50.280;19.160;2023-05-07T11:36:02;7.53;;;1.85;;
66856;SDS011;53766;50.280;19.160;2023-05-07T11:38:34;3.35;;;2.03;;
66856;SDS011;53766;50.280;19.160;2023-05-07T11:41:02;4.63;;;1.90;;
66856;SDS011;53766;50.280;19.160;2023-05-07T11:43:32;7.47;;;2.08;;
66856;SDS011;53766;50.280;19.160;2023-05-07T11:46:07;4.13;;;2.10;;
66856;SDS011;53766;50.280;19.160;2023-05-07T11:48:36;6.20;;;2.05;;
66856;SDS011;53766;50.280;19.160;2023-05-07T11:51:05;3.75;;;1.75;;
66856;SDS011;53766;50.280;19.160;2023-05-07T11:53:40;3.58;;;1.90;;
66856;SDS011;53766;50.280;19.160;2023-05-07T11:56:09;3.05;;;1.80;;
66856;SDS011;53766;50.280;19.160;2023-05-07T11:58:41;3.30;;;1.75;;
66856;SDS011;53766;50.280;19.160;2023-05-07T12:01:10;4.93;;;1.98;;
66856;SDS011;53766;50.280;19.160;2023-05-07T12:03:42;3.78;;;2.00;;
66856;SDS011;53766;50.280;19.160;2023-05-07T12:06:14;3.03;;;2.00;;
66856;SDS011;53766;50.280;19.160;2023-05-07T12:08:44;3.78;;;1.98;;
66856;SDS011;53766;50.280;19.160;2023-05-07T12:11:15;4.53;;;2.03;;
66856;SDS011;53766;50.280;19.160;2023-05-07T12:13:48;4.43;;;2.03;;
66856;SDS011;53766;50.280;19.160;2023-05-07T12:16:16;4.13;;;2.00;;
66856;SDS011;53766;50.280;19.160;2023-05-07T12:18:45;5.13;;;2.13;;
66856;SDS011;53766;50.280;19.160;2023-05-07T12:21:13;4.05;;;1.88;;
66856;SDS011;53766;50.280;19.160;2023-05-07T12:23:41;4.75;;;1.92;;
66856;SDS011;53766;50.280;19.160;2023-05-07T12:26:08;3.88;;;2.17;;
66856;SDS011;53766;50.280;19.160;2023-05-07T12:28:36;4.35;;;2.03;;
66856;SDS011;53766;50.280;19.160;2023-05-07T12:31:07;5.18;;;2.00;;
66856;SDS011;53766;50.280;19.160;2023-05-07T12:33:35;4.55;;;1.95;;
66856;SDS011;53766;50.280;19.160;2023-05-07T12:36:04;3.83;;;1.90;;
66856;SDS011;53766;50.280;19.160;2023-05-07T12:38:35;4.40;;;2.50;;
66856;SDS011;53766;50.280;19.160;2023-05-07T12:41:04;3.13;;;1.70;;
66856;SDS011;53766;50.280;19.160;2023-05-07T12:43:34;4.00;;;2.28;;
66856;SDS011;53766;50.280;19.160;2023-05-07T12:46:03;6.07;;;2.20;;
66856;SDS011;53766;50.280;19.160;2023-05-07T12:48:35;4.20;;;2.00;;
66856;SDS011;53766;50.280;19.160;2023-05-07T12:51:04;3.63;;;2.10;;
66856;SDS011;53766;50.280;19.160;2023-05-07T12:53:33;3.13;;;1.95;;
66856;SDS011;53766;50.280;19.160;2023-05-07T12:56:00;3.65;;;2.00;;
66856;SDS011;53766;50.280;19.160;2023-05-07T12:58:29;3.65;;;2.10;;
66856;SDS011;53766;50.280;19.160;2023-05-07T13:01:00;4.88;;;1.98;;
66856;SDS011;53766;50.280;19.160;2023-05-07T13:03:32;5.43;;;2.25;;
66856;SDS011;53766;50.280;19.160;2023-05-07T13:06:08;2.97;;;2.05;;
66856;SDS011;53766;50.280;19.160;2023-05-07T13:08:38;6.10;;;2.53;;
66856;SDS011;53766;50.280;19.160;2023-05-07T13:11:08;6.03;;;2.35;;
66856;SDS011;53766;50.280;19.160;2023-05-07T13:13:38;9.48;;;2.30;;
66856;SDS011;53766;50.280;19.160;2023-05-07T13:16:08;5.57;;;1.90;;
66856;SDS011;53766;50.280;19.160;2023-05-07T13:18:38;11.10;;;2.63;;
66856;SDS011;53766;50.280;19.160;2023-05-07T13:21:07;5.65;;;2.13;;
66856;SDS011;53766;50.280;19.160;2023-05-07T13:23:35;10.55;;;2.13;;
66856;SDS011;53766;50.280;19.160;2023-05-07T13:26:02;7.85;;;2.53;;
66856;SDS011;53766;50.280;19.160;2023-05-07T13:28:37;3.75;;;2.08;;
66856;SDS011;53766;50.280;19.160;2023-05-07T13:31:05;6.13;;;2.42;;
66856;SDS011;53766;50.280;19.160;2023-05-07T13:33:32;4.45;;;2.05;;
66856;SDS011;53766;50.280;19.160;2023-05-07T13:36:00;5.57;;;2.30;;
66856;SDS011;53766;50.280;19.160;2023-05-07T13:38:27;4.65;;;2.20;;
66856;SDS011;53766;50.280;19.160;2023-05-07T13:40:55;5.15;;;2.60;;
66856;SDS011;53766;50.280;19.160;2023-05-07T13:43:22;5.15;;;2.15;;
66856;SDS011;53766;50.280;19.160;2023-05-07T13:45:50;5.38;;;1.95;;
66856;SDS011;53766;50.280;19.160;2023-05-07T13:48:17;7.00;;;2.10;;
66856;SDS011;53766;50.280;19.160;2023-05-07T13:50:44;9.93;;;2.33;;
66856;SDS011;53766;50.280;19.160;2023-05-07T13:53:12;3.90;;;2.15;;
66856;SDS011;53766;50.280;19.160;2023-05-07T13:55:39;3.25;;;2.00;;
66856;SDS011;53766;50.280;19.160;2023-05-07T13:58:07;5.53;;;2.20;;
66856;SDS011;53766;50.280;19.160;2023-05-07T14:00:35;3.65;;;1.92;;
66856;SDS011;53766;50.280;19.160;2023-05-07T14:03:03;3.42;;;2.05;;
66856;SDS011;53766;50.280;19.160;2023-05-07T14:05:32;5.05;;;2.20;;
66856;SDS011;53766;50.280;19.160;2023-05-07T14:07:59;4.18;;;2.20;;
66856;SDS011;53766;50.280;19.160;2023-05-07T14:10:26;3.47;;;2.25;;
66856;SDS011;53766;50.280;19.160;2023-05-07T14:12:54;4.97;;;1.98;;
66856;SDS011;53766;50.280;19.160;2023-05-07T14:15:22;4.25;;;2.50;;
66856;SDS011;53766;50.280;19.160;2023-05-07T14:17:49;4.85;;;2.50;;
66856;SDS011;53766;50.280;19.160;2023-05-07T14:20:17;4.35;;;2.38;;
66856;SDS011;53766;50.280;19.160;2023-05-07T14:22:45;5.68;;;2.80;;
66856;SDS011;53766;50.280;19.160;2023-05-07T14:25:12;5.45;;;3.00;;
66856;SDS011;53766;50.280;19.160;2023-05-07T14:27:40;4.82;;;2.55;;
66856;SDS011;53766;50.280;19.160;2023-05-07T14:30:08;6.13;;;2.90;;
66856;SDS011;53766;50.280;19.160;2023-05-07T14:32:35;6.05;;;2.72;;
66856;SDS011;53766;50.280;19.160;2023-05-07T14:35:03;4.15;;;2.78;;
66856;SDS011;53766;50.280;19.160;2023-05-07T14:37:31;4.95;;;2.80;;
66856;SDS011;53766;50.280;19.160;2023-05-07T14:39:59;3.97;;;2.75;;
66856;SDS011;53766;50.280;19.160;2023-05-07T14:42:26;6.00;;;2.90;;
66856;SDS011;53766;50.280;19.160;2023-05-07T14:44:54;5.68;;;3.40;;
66856;SDS011;53766;50.280;19.160;2023-05-07T14:47:22;5.22;;;3.13;;
66856;SDS011;53766;50.280;19.160;2023-05-07T14:49:50;4.65;;;2.60;;
66856;SDS011;53766;50.280;19.160;2023-05-07T14:52:18;5.75;;;2.70;;
66856;SDS011;53766;50.280;19.160;2023-05-07T14:54:45;4.88;;;2.50;;
66856;SDS011;53766;50.280;19.160;2023-05-07T14:57:13;3.97;;;2.40;;